sensor_id;sensor_type;location;lat;lon;timestamp;pressure;altitude;pressure_sealevel;temperature;humidity
12664;BME280;6396;58.490;15.528;2023-08-17T00:02:10;101308.19;;;17.59;100.00
12664;BME280;6396;58.490;15.528;2023-08-17T00:04:37;101210.44;;;16.95;100.00
12664;BME280;6396;58.490;15.528;2023-08-17T00:07:04;101212.34;;;16.92;100.00
12664;BME280;6396;58.490;15.528;2023-08-17T00:09:31;101401.00;;;18.15;100.00
12664;BME280;6396;58.490;15.528;2023-08-17T00:11:58;101363.13;;;17.85;100.00
12664;BME280;6396;58.490;15.528;2023-08-17T00:14:27;101428.47;;;18.18;100.00
12664;BME280;6396;58.490;15.528;2023-08-17T00:16:54;101220.41;;;16.90;100.00
12664;BME280;6396;58.490;15.528;2023-08-17T00:19:20;101418.09;;;18.11;100.00
12664;BME280;6396;58.490;15.528;2023-08-17T00:21:47;101449.19;;;18.13;100.00
12664;BME280;6396;58.490;15.528;2023-08-17T00:24:14;101029.38;;;15.84;100.00
12664;BME280;6396;58.490;15.528;2023-08-17T00:26:41;101338.97;;;17.68;100.00
12664;BME280;6396;58.490;15.528;2023-08-17T00:29:08;100793.09;;;14.41;100.00
12664;BME280;6396;58.490;15.528;2023-08-17T00:31:36;101442.84;;;18.16;100.00
12664;BME280;6396;58.490;15.528;2023-08-17T00:34:03;100734.72;;;14.16;100.00
12664;BME280;6396;58.490;15.528;2023-08-17T00:36:30;101381.97;;;17.82;100.00
12664;BME280;6396;58.490;15.528;2023-08-17T00:38:57;101108.16;;;16.33;100.00
12664;BME280;6396;58.490;15.528;2023-08-17T00:41:24;101061.78;;;15.74;100.00
12664;BME280;6396;58.490;15.528;2023-08-17T00:43:51;101183.72;;;16.75;100.00
12664;BME280;6396;58.490;15.528;2023-08-17T00:46:18;101063.88;;;15.87;100.00
12664;BME280;6396;58.490;15.528;2023-08-17T00:48:47;100975.63;;;15.08;100.00
12664;BME280;6396;58.490;15.528;2023-08-17T00:51:14;101054.84;;;15.70;100.00
12664;BME280;6396;58.490;15.528;2023-08-17T00:53:41;101238.97;;;16.50;100.00
12664;BME280;6396;58.490;15.528;2023-08-17T00:56:09;101394.50;;;17.60;100.00
12664;BME280;6396;58.490;15.528;2023-08-17T00:58:35;101111.00;;;15.85;100.00
12664;BME280;6396;58.490;15.528;2023-08-17T01:01:02;101213.84;;;16.77;100.00
12664;BME280;6396;58.490;15.528;2023-08-17T01:03:29;100976.84;;;15.46;100.00
12664;BME280;6396;58.490;15.528;2023-08-17T01:05:58;101454.78;;;18.07;100.00
12664;BME280;6396;58.490;15.528;2023-08-17T01:08:28;101432.63;;;18.05;100.00
12664;BME280;6396;58.490;15.528;2023-08-17T01:10:59;101433.63;;;17.83;100.00
12664;BME280;6396;58.490;15.528;2023-08-17T01:13:36;101425.53;;;18.04;100.00
12664;BME280;6396;58.490;15.528;2023-08-17T01:16:06;101284.50;;;16.89;100.00
12664;BME280;6396;58.490;15.528;2023-08-17T01:18:37;100797.84;;;14.33;100.00
12664;BME280;6396;58.490;15.528;2023-08-17T01:21:08;101235.06;;;16.80;100.00
12664;BME280;6396;58.490;15.528;2023-08-17T01:23:37;101262.63;;;16.81;100.00
12664;BME280;6396;58.490;15.528;2023-08-17T01:26:04;101145.88;;;15.79;100.00
12664;BME280;6396;58.490;15.528;2023-08-17T01:28:32;101212.38;;;16.48;100.00
12664;BME280;6396;58.490;15.528;2023-08-17T01:31:02;100848.91;;;14.41;100.00
12664;BME280;6396;58.490;15.528;2023-08-17T01:33:35;101217.72;;;16.48;100.00
12664;BME280;6396;58.490;15.528;2023-08-17T01:36:07;101391.03;;;17.36;100.00
12664;BME280;6396;58.490;15.528;2023-08-17T01:38:40;101211.59;;;16.45;100.00
12664;BME280;6396;58.490;15.528;2023-08-17T01:41:09;101373.16;;;17.38;100.00
12664;BME280;6396;58.490;15.528;2023-08-17T01:43:39;101067.25;;;15.47;100.00
12664;BME280;6396;58.490;15.528;2023-08-17T01:46:07;100963.81;;;14.71;100.00
12664;BME280;6396;58.490;15.528;2023-08-17T01:48:34;100940.28;;;14.83;100.00
12664;BME280;6396;58.490;15.528;2023-08-17T01:51:00;101087.59;;;15.72;100.00
12664;BME280;6396;58.490;15.528;2023-08-17T01:53:27;101110.66;;;15.73;100.00
12664;BME280;6396;58.490;15.528;2023-08-17T01:55:56;101294.78;;;16.76;100.00
12664;BME280;6396;58.490;15.528;2023-08-17T01:58:23;100946.50;;;14.36;100.00
12664;BME280;6396;58.490;15.528;2023-08-17T02:00:49;101050.47;;;15.22;100.00
12664;BME280;6396;58.490;15.528;2023-08-17T02:03:16;101466.19;;;17.70;100.00
12664;BME280;6396;58.490;15.528;2023-08-17T02:05:44;100921.00;;;14.55;100.00
12664;BME280;6396;58.490;15.528;2023-08-17T02:08:11;101379.13;;;16.80;100.00
12664;BME280;6396;58.490;15.528;2023-08-17T02:10:38;101267.47;;;16.49;100.00
12664;BME280;6396;58.490;15.528;2023-08-17T02:13:06;101305.38;;;16.79;100.00
12664;BME280;6396;58.490;15.528;2023-08-17T02:15:38;101287.19;;;16.67;100.00
12664;BME280;6396;58.490;15.528;2023-08-17T02:18:05;101323.78;;;16.63;100.00
12664;BME280;6396;58.490;15.528;2023-08-17T02:20:32;100861.66;;;14.07;100.00
12664;BME280;6396;58.490;15.528;2023-08-17T02:22:59;101525.22;;;17.86;100.00
12664;BME280;6396;58.490;15.528;2023-08-17T02:25:25;101074.47;;;15.21;100.00
12664;BME280;6396;58.490;15.528;2023-08-17T02:27:59;100958.50;;;14.71;100.00
12664;BME280;6396;58.490;15.528;2023-08-17T02:30:27;101191.50;;;15.93;100.00
12664;BME280;6396;58.490;15.528;2023-08-17T02:32:54;101522.28;;;17.92;100.00
12664;BME280;6396;58.490;15.528;2023-08-17T02:35:21;100921.34;;;14.46;100.00
12664;BME280;6396;58.490;15.528;2023-08-17T02:37:48;101437.75;;;17.26;100.00
12664;BME280;6396;58.490;15.528;2023-08-17T02:40:15;101558.06;;;17.88;100.00
12664;BME280;6396;58.490;15.528;2023-08-17T02:42:42;101491.91;;;17.51;100.00
12664;BME280;6396;58.490;15.528;2023-08-17T02:45:09;101438.03;;;17.19;100.00
12664;BME280;6396;58.490;15.528;2023-08-17T02:47:37;101310.97;;;16.50;100.00
12664;BME280;6396;58.490;15.528;2023-08-17T02:50:05;101148.97;;;15.69;100.00
12664;BME280;6396;58.490;15.528;2023-08-17T02:52:33;101316.97;;;16.56;100.00
12664;BME280;6396;58.490;15.528;2023-08-17T02:55:00;101098.13;;;15.28;100.00
12664;BME280;6396;58.490;15.528;2023-08-17T02:57:27;101165.09;;;15.64;100.00
12664;BME280;6396;58.490;15.528;2023-08-17T02:59:54;101244.44;;;15.79;100.00
12664;BME280;6396;58.490;15.528;2023-08-17T03:02:21;101145.78;;;15.59;100.00
12664;BME280;6396;58.490;15.528;2023-08-17T03:04:50;101338.97;;;16.83;100.00
12664;BME280;6396;58.490;15.528;2023-08-17T03:07:17;101447.94;;;17.38;100.00
12664;BME280;6396;58.490;15.528;2023-08-17T03:09:44;101317.09;;;16.29;100.00
12664;BME280;6396;58.490;15.528;2023-08-17T03:12:10;101586.28;;;17.95;100.00
12664;BME280;6396;58.490;15.528;2023-08-17T03:14:37;101554.19;;;17.97;100.00
12664;BME280;6396;58.490;15.528;2023-08-17T03:17:04;101561.25;;;17.98;100.00
12664;BME280;6396;58.490;15.528;2023-08-17T03:19:31;101015.84;;;14.53;100.00
12664;BME280;6396;58.490;15.528;2023-08-17T03:21:59;101077.41;;;15.13;100.00
12664;BME280;6396;58.490;15.528;2023-08-17T03:24:26;101576.53;;;17.94;100.00
12664;BME280;6396;58.490;15.528;2023-08-17T03:26:53;101293.31;;;16.24;100.00
12664;BME280;6396;58.490;15.528;2023-08-17T03:29:20;101593.47;;;17.95;100.00
12664;BME280;6396;58.490;15.528;2023-08-17T03:31:46;101486.34;;;17.34;100.00
12664;BME280;6396;58.490;15.528;2023-08-17T03:34:15;101388.41;;;16.70;100.00
12664;BME280;6396;58.490;15.528;2023-08-17T03:36:41;101358.31;;;16.66;100.00
12664;BME280;6396;58.490;15.528;2023-08-17T03:39:10;101213.22;;;15.83;100.00
12664;BME280;6396;58.490;15.528;2023-08-17T03:41:37;101617.38;;;17.98;100.00
12664;BME280;6396;58.490;15.528;2023-08-17T03:44:04;101347.47;;;16.71;100.00
12664;BME280;6396;58.490;15.528;2023-08-17T03:46:32;101509.63;;;17.31;100.00
12664;BME280;6396;58.490;15.528;2023-08-17T03:48:59;101440.63;;;16.99;100.00
12664;BME280;6396;58.490;15.528;2023-08-17T03:51:26;101248.31;;;15.94;100.00
12664;BME280;6396;58.490;15.528;2023-08-17T03:53:53;101321.16;;;16.16;100.00
12664;BME280;6396;58.490;15.528;2023-08-17T03:56:21;101164.88;;;15.47;100.00
12664;BME280;6396;58.490;15.528;2023-08-17T03:58:48;101576.47;;;17.96;100.00
12664;BME280;6396;58.490;15.528;2023-08-17T04:01:15;101208.72;;;15.85;100.00
12664;BME280;6396;58.490;15.528;2023-08-17T04:03:42;101274.84;;;15.97;100.00
12664;BME280;6396;58.490;15.528;2023-08-17T04:06:08;101347.59;;;16.68;100.00
12664;BME280;6396;58.490;15.528;2023-08-17T04:08:36;101577.16;;;18.01;100.00
12664;BME280;6396;58.490;15.528;2023-08-17T04:11:03;101376.00;;;16.69;100.00
12664;BME280;6396;58.490;15.528;2023-08-17T04:13:32;101663.69;;;17.98;100.00
12664;BME280;6396;58.490;15.528;2023-08-17T04:15:59;101587.16;;;17.74;100.00
12664;BME280;6396;58.490;15.528;2023-08-17T04:18:26;101592.13;;;17.83;100.00
12664;BME280;6396;58.490;15.528;2023-08-17T04:20:54;101417.97;;;16.87;100.00
12664;BME280;6396;58.490;15.528;2023-08-17T04:23:21;101359.69;;;16.77;100.00
12664;BME280;6396;58.490;15.528;2023-08-17T04:25:47;101316.06;;;16.56;100.00
12664;BME280;6396;58.490;15.528;2023-08-17T04:28:14;101414.44;;;17.08;100.00
12664;BME280;6396;58.490;15.528;2023-08-17T04:30:43;101284.84;;;15.90;100.00
12664;BME280;6396;58.490;15.528;2023-08-17T04:33:09;101168.22;;;15.75;100.00
12664;BME280;6396;58.490;15.528;2023-08-17T04:35:36;101412.97;;;16.78;100.00
12664;BME280;6396;58.490;15.528;2023-08-17T04:38:03;100879.41;;;14.06;100.00
12664;BME280;6396;58.490;15.528;2023-08-17T04:40:30;101158.13;;;15.61;100.00
12664;BME280;6396;58.490;15.528;2023-08-17T04:42:58;101251.00;;;16.15;100.00
12664;BME280;6396;58.490;15.528;2023-08-17T04:45:24;101267.81;;;16.17;100.00
12664;BME280;6396;58.490;15.528;2023-08-17T04:47:53;101178.94;;;15.74;100.00
12664;BME280;6396;58.490;15.528;2023-08-17T04:50:19;101090.31;;;15.24;100.00
12664;BME280;6396;58.490;15.528;2023-08-17T04:52:46;101208.94;;;15.79;100.00
12664;BME280;6396;58.490;15.528;2023-08-17T04:55:13;101164.25;;;15.63;100.00
12664;BME280;6396;58.490;15.528;2023-08-17T04:57:40;101186.47;;;15.62;100.00
12664;BME280;6396;58.490;15.528;2023-08-17T05:00:08;101282.94;;;15.94;100.00
12664;BME280;6396;58.490;15.528;2023-08-17T05:02:35;101628.56;;;18.07;100.00
12664;BME280;6396;58.490;15.528;2023-08-17T05:05:05;101599.16;;;18.07;100.00
12664;BME280;6396;58.490;15.528;2023-08-17T05:07:32;101303.00;;;16.27;100.00
12664;BME280;6396;58.490;15.528;2023-08-17T05:09:59;101598.16;;;18.10;100.00
12664;BME280;6396;58.490;15.528;2023-08-17T05:12:27;101621.28;;;18.11;100.00
12664;BME280;6396;58.490;15.528;2023-08-17T05:14:53;101604.25;;;18.13;100.00
12664;BME280;6396;58.490;15.528;2023-08-17T05:17:20;101612.22;;;18.15;100.00
12664;BME280;6396;58.490;15.528;2023-08-17T05:19:47;101631.81;;;18.15;100.00
12664;BME280;6396;58.490;15.528;2023-08-17T05:22:15;101472.94;;;17.36;100.00
12664;BME280;6396;58.490;15.528;2023-08-17T05:24:42;101646.00;;;18.17;100.00
12664;BME280;6396;58.490;15.528;2023-08-17T05:27:09;101262.91;;;16.07;100.00
12664;BME280;6396;58.490;15.528;2023-08-17T05:29:35;101621.78;;;18.20;100.00
12664;BME280;6396;58.490;15.528;2023-08-17T05:32:02;101580.78;;;18.00;100.00
12664;BME280;6396;58.490;15.528;2023-08-17T05:34:48;101631.44;;;18.24;100.00
12664;BME280;6396;58.490;15.528;2023-08-17T05:37:20;101645.00;;;17.98;100.00
12664;BME280;6396;58.490;15.528;2023-08-17T05:39:47;101654.47;;;18.27;100.00
12664;BME280;6396;58.490;15.528;2023-08-17T05:42:14;101194.16;;;15.70;100.00
12664;BME280;6396;58.490;15.528;2023-08-17T05:44:41;101626.38;;;17.73;100.00
12664;BME280;6396;58.490;15.528;2023-08-17T05:47:08;101445.44;;;17.12;100.00
12664;BME280;6396;58.490;15.528;2023-08-17T05:49:35;101484.78;;;17.29;100.00
12664;BME280;6396;58.490;15.528;2023-08-17T05:52:03;101664.81;;;18.36;100.00
12664;BME280;6396;58.490;15.528;2023-08-17T05:54:31;101669.25;;;18.37;100.00
12664;BME280;6396;58.490;15.528;2023-08-17T05:56:58;101434.63;;;17.15;100.00
12664;BME280;6396;58.490;15.528;2023-08-17T05:59:25;101626.81;;;18.28;100.00
12664;BME280;6396;58.490;15.528;2023-08-17T06:01:52;101589.47;;;18.05;100.00
12664;BME280;6396;58.490;15.528;2023-08-17T06:04:19;101666.41;;;18.41;100.00
12664;BME280;6396;58.490;15.528;2023-08-17T06:06:46;101544.09;;;17.81;100.00
12664;BME280;6396;58.490;15.528;2023-08-17T06:09:13;101685.81;;;18.46;100.00
12664;BME280;6396;58.490;15.528;2023-08-17T06:11:41;101670.50;;;18.50;100.00
12664;BME280;6396;58.490;15.528;2023-08-17T06:14:08;101659.78;;;18.50;100.00
12664;BME280;6396;58.490;15.528;2023-08-17T06:16:35;101469.66;;;17.29;100.00
12664;BME280;6396;58.490;15.528;2023-08-17T06:19:02;101453.34;;;17.37;100.00
12664;BME280;6396;58.490;15.528;2023-08-17T06:21:29;101567.47;;;17.98;100.00
12664;BME280;6396;58.490;15.528;2023-08-17T06:23:55;101339.25;;;16.54;100.00
12664;BME280;6396;58.490;15.528;2023-08-17T06:26:22;101376.72;;;16.74;100.00
12664;BME280;6396;58.490;15.528;2023-08-17T06:28:50;101685.22;;;18.60;100.00
12664;BME280;6396;58.490;15.528;2023-08-17T06:31:19;100968.19;;;14.22;100.00
12664;BME280;6396;58.490;15.528;2023-08-17T06:33:48;101719.94;;;18.61;100.00
12664;BME280;6396;58.490;15.528;2023-08-17T06:36:15;101126.78;;;15.22;100.00
12664;BME280;6396;58.490;15.528;2023-08-17T06:38:42;101136.81;;;15.61;100.00
12664;BME280;6396;58.490;15.528;2023-08-17T06:41:09;101061.09;;;15.22;100.00
12664;BME280;6396;58.490;15.528;2023-08-17T06:43:36;101256.38;;;16.37;100.00
12664;BME280;6396;58.490;15.528;2023-08-17T06:46:04;101500.97;;;17.69;100.00
12664;BME280;6396;58.490;15.528;2023-08-17T06:48:31;101473.66;;;17.62;100.00
12664;BME280;6396;58.490;15.528;2023-08-17T06:50:58;101702.19;;;18.80;100.00
12664;BME280;6396;58.490;15.528;2023-08-17T06:53:25;101091.88;;;15.29;100.00
12664;BME280;6396;58.490;15.528;2023-08-17T06:55:52;101736.78;;;18.85;100.00
12664;BME280;6396;58.490;15.528;2023-08-17T06:58:19;101323.09;;;16.80;100.00
12664;BME280;6396;58.490;15.528;2023-08-17T07:00:46;101548.97;;;17.72;100.00
12664;BME280;6396;58.490;15.528;2023-08-17T07:03:15;101348.84;;;16.81;100.00
12664;BME280;6396;58.490;15.528;2023-08-17T07:05:42;101622.72;;;18.41;100.00
12664;BME280;6396;58.490;15.528;2023-08-17T07:08:09;101727.31;;;18.98;100.00
12664;BME280;6396;58.490;15.528;2023-08-17T07:10:36;101581.88;;;18.16;100.00
12664;BME280;6396;58.490;15.528;2023-08-17T07:13:06;101640.69;;;18.59;100.00
12664;BME280;6396;58.490;15.528;2023-08-17T07:15:32;101663.03;;;18.78;100.00
12664;BME280;6396;58.490;15.528;2023-08-17T07:17:59;101666.09;;;18.69;100.00
12664;BME280;6396;58.490;15.528;2023-08-17T07:20:28;101612.44;;;18.52;100.00
12664;BME280;6396;58.490;15.528;2023-08-17T07:22:54;101561.16;;;18.21;100.00
12664;BME280;6396;58.490;15.528;2023-08-17T07:25:22;101531.25;;;17.91;100.00
12664;BME280;6396;58.490;15.528;2023-08-17T07:27:49;101353.31;;;17.02;100.00
12664;BME280;6396;58.490;15.528;2023-08-17T07:30:16;101513.75;;;18.04;100.00
12664;BME280;6396;58.490;15.528;2023-08-17T07:32:43;101779.88;;;19.21;100.00
12664;BME280;6396;58.490;15.528;2023-08-17T07:35:10;101368.81;;;17.36;100.00
12664;BME280;6396;58.490;15.528;2023-08-17T07:37:38;101462.28;;;17.99;100.00
12664;BME280;6396;58.490;15.528;2023-08-17T07:40:06;101662.44;;;19.12;100.00
12664;BME280;6396;58.490;15.528;2023-08-17T07:42:33;101601.34;;;19.01;100.00
12664;BME280;6396;58.490;15.528;2023-08-17T07:45:02;101690.19;;;19.49;100.00
12664;BME280;6396;58.490;15.528;2023-08-17T07:47:31;101697.31;;;19.50;100.00
12664;BME280;6396;58.490;15.528;2023-08-17T07:49:58;101693.25;;;19.60;100.00
12664;BME280;6396;58.490;15.528;2023-08-17T07:52:25;101710.38;;;19.76;100.00
12664;BME280;6396;58.490;15.528;2023-08-17T07:54:53;101722.72;;;19.99;100.00
12664;BME280;6396;58.490;15.528;2023-08-17T07:57:20;101798.16;;;20.10;100.00
12664;BME280;6396;58.490;15.528;2023-08-17T07:59:47;101565.38;;;19.07;100.00
12664;BME280;6396;58.490;15.528;2023-08-17T08:02:14;101546.13;;;19.17;100.00
12664;BME280;6396;58.490;15.528;2023-08-17T08:04:41;101638.81;;;19.78;100.00
12664;BME280;6396;58.490;15.528;2023-08-17T08:07:09;101636.47;;;19.89;100.00
12664;BME280;6396;58.490;15.528;2023-08-17T08:09:36;101346.31;;;18.42;100.00
12664;BME280;6396;58.490;15.528;2023-08-17T08:12:05;101733.16;;;20.78;100.00
12664;BME280;6396;58.490;15.528;2023-08-17T08:14:33;101421.06;;;19.38;100.00
12664;BME280;6396;58.490;15.528;2023-08-17T08:17:00;101687.47;;;21.29;100.00
12664;BME280;6396;58.490;15.528;2023-08-17T08:19:26;101672.22;;;21.62;100.00
12664;BME280;6396;58.490;15.528;2023-08-17T08:21:53;101732.63;;;23.12;100.00
12664;BME280;6396;58.490;15.528;2023-08-17T08:24:20;101646.78;;;23.63;100.00
12664;BME280;6396;58.490;15.528;2023-08-17T08:26:46;101706.56;;;24.52;100.00
12664;BME280;6396;58.490;15.528;2023-08-17T08:29:15;101733.13;;;25.38;100.00
12664;BME280;6396;58.490;15.528;2023-08-17T08:31:41;101695.78;;;25.68;100.00
12664;BME280;6396;58.490;15.528;2023-08-17T08:34:08;101676.38;;;25.87;100.00
12664;BME280;6396;58.490;15.528;2023-08-17T08:36:35;101720.91;;;26.68;100.00
12664;BME280;6396;58.490;15.528;2023-08-17T08:39:04;101738.00;;;27.26;100.00
12664;BME280;6396;58.490;15.528;2023-08-17T08:41:31;101699.78;;;27.18;100.00
12664;BME280;6396;58.490;15.528;2023-08-17T08:43:58;101656.47;;;27.06;100.00
12664;BME280;6396;58.490;15.528;2023-08-17T08:46:30;101597.22;;;26.54;100.00
12664;BME280;6396;58.490;15.528;2023-08-17T08:48:58;101600.72;;;26.32;100.00
12664;BME280;6396;58.490;15.528;2023-08-17T08:51:27;101711.09;;;27.12;100.00
12664;BME280;6396;58.490;15.528;2023-08-17T08:54:00;101741.09;;;27.79;100.00
12664;BME280;6396;58.490;15.528;2023-08-17T08:56:31;101468.69;;;26.69;100.00
12664;BME280;6396;58.490;15.528;2023-08-17T08:59:01;101707.81;;;27.99;100.00
12664;BME280;6396;58.490;15.528;2023-08-17T09:01:30;101559.66;;;27.17;100.00
12664;BME280;6396;58.490;15.528;2023-08-17T09:03:58;101670.56;;;27.22;100.00
12664;BME280;6396;58.490;15.528;2023-08-17T09:06:26;101172.13;;;23.86;100.00
12664;BME280;6396;58.490;15.528;2023-08-17T09:08:55;101140.63;;;22.99;100.00
12664;BME280;6396;58.490;15.528;2023-08-17T09:11:23;101493.97;;;24.15;100.00
12664;BME280;6396;58.490;15.528;2023-08-17T09:13:50;101768.63;;;25.07;100.00
12664;BME280;6396;58.490;15.528;2023-08-17T09:16:17;101743.25;;;24.56;100.00
12664;BME280;6396;58.490;15.528;2023-08-17T09:18:46;101197.63;;;20.68;100.00
12664;BME280;6396;58.490;15.528;2023-08-17T09:21:20;101327.22;;;21.62;100.00
12664;BME280;6396;58.490;15.528;2023-08-17T09:23:51;101072.19;;;20.11;100.00
12664;BME280;6396;58.490;15.528;2023-08-17T09:26:19;101441.28;;;22.75;100.00
12664;BME280;6396;58.490;15.528;2023-08-17T09:28:47;101298.47;;;22.20;100.00
12664;BME280;6396;58.490;15.528;2023-08-17T09:31:14;101438.00;;;22.84;100.00
12664;BME280;6396;58.490;15.528;2023-08-17T09:33:42;101479.06;;;22.87;100.00
12664;BME280;6396;58.490;15.528;2023-08-17T09:36:11;101784.03;;;24.52;100.00
12664;BME280;6396;58.490;15.528;2023-08-17T09:38:39;101390.06;;;22.18;100.00
12664;BME280;6396;58.490;15.528;2023-08-17T09:41:05;101832.84;;;24.63;100.00
12664;BME280;6396;58.490;15.528;2023-08-17T09:43:33;101816.66;;;24.63;100.00
12664;BME280;6396;58.490;15.528;2023-08-17T09:46:00;101374.13;;;22.72;100.00
12664;BME280;6396;58.490;15.528;2023-08-17T09:48:28;101135.84;;;21.69;100.00
12664;BME280;6396;58.490;15.528;2023-08-17T09:50:57;101136.81;;;21.82;100.00
12664;BME280;6396;58.490;15.528;2023-08-17T09:55:55;101788.72;;;25.42;100.00
12664;BME280;6396;58.490;15.528;2023-08-17T09:58:23;101442.19;;;23.30;100.00
12664;BME280;6396;58.490;15.528;2023-08-17T10:00:50;101125.28;;;21.52;100.00
12664;BME280;6396;58.490;15.528;2023-08-17T10:03:18;101504.53;;;23.24;100.00
12664;BME280;6396;58.490;15.528;2023-08-17T10:05:50;101771.00;;;24.58;100.00
12664;BME280;6396;58.490;15.528;2023-08-17T10:08:20;101143.91;;;20.54;100.00
12664;BME280;6396;58.490;15.528;2023-08-17T10:10:49;101230.31;;;21.49;100.00
12664;BME280;6396;58.490;15.528;2023-08-17T10:13:22;101376.81;;;22.86;100.00
12664;BME280;6396;58.490;15.528;2023-08-17T10:15:57;101424.53;;;23.65;100.00
12664;BME280;6396;58.490;15.528;2023-08-17T10:18:29;101114.72;;;21.91;100.00
12664;BME280;6396;58.490;15.528;2023-08-17T10:21:02;101052.38;;;21.16;100.00
12664;BME280;6396;58.490;15.528;2023-08-17T10:23:32;101550.69;;;24.67;100.00
12664;BME280;6396;58.490;15.528;2023-08-17T10:26:02;101792.25;;;25.94;100.00
12664;BME280;6396;58.490;15.528;2023-08-17T10:28:30;101564.16;;;24.54;100.00
12664;BME280;6396;58.490;15.528;2023-08-17T10:31:00;101512.69;;;23.91;100.00
12664;BME280;6396;58.490;15.528;2023-08-17T10:33:28;101661.22;;;24.30;100.00
12664;BME280;6396;58.490;15.528;2023-08-17T10:35:55;101735.94;;;24.30;100.00
12664;BME280;6396;58.490;15.528;2023-08-17T10:38:23;101742.66;;;23.96;100.00
12664;BME280;6396;58.490;15.528;2023-08-17T10:41:09;101776.59;;;24.00;100.00
12664;BME280;6396;58.490;15.528;2023-08-17T10:43:57;101771.75;;;23.63;100.00
12664;BME280;6396;58.490;15.528;2023-08-17T10:46:34;101694.97;;;23.11;100.00
12664;BME280;6396;58.490;15.528;2023-08-17T10:49:03;101435.19;;;21.54;100.00
12664;BME280;6396;58.490;15.528;2023-08-17T10:52:35;101774.91;;;23.56;100.00
12664;BME280;6396;58.490;15.528;2023-08-17T10:54:53;101683.75;;;22.89;100.00
12664;BME280;6396;58.490;15.528;2023-08-17T10:57:32;101559.09;;;22.42;100.00
12664;BME280;6396;58.490;15.528;2023-08-17T11:00:16;101695.50;;;22.88;100.00
12664;BME280;6396;58.490;15.528;2023-08-17T11:02:49;101339.44;;;21.22;100.00
12664;BME280;6396;58.490;15.528;2023-08-17T11:05:37;101654.13;;;23.03;100.00
12664;BME280;6396;58.490;15.528;2023-08-17T11:08:04;101781.09;;;23.72;100.00
12664;BME280;6396;58.490;15.528;2023-08-17T11:10:32;101675.50;;;23.06;100.00
12664;BME280;6396;58.490;15.528;2023-08-17T11:13:00;101647.13;;;23.00;100.00
12664;BME280;6396;58.490;15.528;2023-08-17T11:15:38;101708.59;;;23.38;100.00
12664;BME280;6396;58.490;15.528;2023-08-17T11:18:08;101504.00;;;22.03;100.00
12664;BME280;6396;58.490;15.528;2023-08-17T11:20:35;101769.44;;;23.85;100.00
12664;BME280;6396;58.490;15.528;2023-08-17T11:23:03;101666.28;;;23.24;100.00
12664;BME280;6396;58.490;15.528;2023-08-17T11:25:31;101752.88;;;23.77;100.00
12664;BME280;6396;58.490;15.528;2023-08-17T11:28:01;101772.91;;;23.73;100.00
12664;BME280;6396;58.490;15.528;2023-08-17T11:30:28;101700.94;;;23.16;100.00
12664;BME280;6396;58.490;15.528;2023-08-17T11:32:57;101717.41;;;23.25;100.00
12664;BME280;6396;58.490;15.528;2023-08-17T11:35:24;101774.44;;;23.63;100.00
12664;BME280;6396;58.490;15.528;2023-08-17T11:37:51;101469.00;;;21.74;100.00
12664;BME280;6396;58.490;15.528;2023-08-17T11:40:18;101602.38;;;22.39;100.00
12664;BME280;6396;58.490;15.528;2023-08-17T11:42:45;101673.41;;;23.11;100.00
12664;BME280;6396;58.490;15.528;2023-08-17T11:45:14;101547.81;;;22.21;100.00
12664;BME280;6396;58.490;15.528;2023-08-17T11:47:41;101802.91;;;23.53;100.00
12664;BME280;6396;58.490;15.528;2023-08-17T11:50:10;101785.00;;;23.52;100.00
12664;BME280;6396;58.490;15.528;2023-08-17T11:52:37;101807.34;;;23.24;100.00
12664;BME280;6396;58.490;15.528;2023-08-17T11:55:05;101786.81;;;23.38;100.00
12664;BME280;6396;58.490;15.528;2023-08-17T11:57:32;101778.34;;;23.14;100.00
12664;BME280;6396;58.490;15.528;2023-08-17T12:00:00;101352.06;;;20.27;100.00
12664;BME280;6396;58.490;15.528;2023-08-17T12:02:30;101672.13;;;22.12;100.00
12664;BME280;6396;58.490;15.528;2023-08-17T12:04:57;101759.97;;;22.91;100.00
12664;BME280;6396;58.490;15.528;2023-08-17T12:07:24;101449.38;;;21.27;100.00
12664;BME280;6396;58.490;15.528;2023-08-17T12:09:51;101822.41;;;23.13;100.00
12664;BME280;6396;58.490;15.528;2023-08-17T12:12:17;101790.41;;;22.77;100.00
12664;BME280;6396;58.490;15.528;2023-08-17T12:14:46;101799.94;;;22.98;100.00
12664;BME280;6396;58.490;15.528;2023-08-17T12:17:14;101778.50;;;22.66;100.00
12664;BME280;6396;58.490;15.528;2023-08-17T12:19:43;101325.94;;;20.30;100.00
12664;BME280;6396;58.490;15.528;2023-08-17T12:22:12;101701.59;;;22.45;100.00
12664;BME280;6396;58.490;15.528;2023-08-17T12:24:39;101477.25;;;21.24;100.00
12664;BME280;6396;58.490;15.528;2023-08-17T12:27:06;101799.72;;;23.17;100.00
12664;BME280;6396;58.490;15.528;2023-08-17T12:29:33;101811.09;;;23.22;100.00
12664;BME280;6396;58.490;15.528;2023-08-17T12:32:01;101741.19;;;22.89;100.00
12664;BME280;6396;58.490;15.528;2023-08-17T12:34:28;101764.94;;;22.83;100.00
12664;BME280;6396;58.490;15.528;2023-08-17T12:36:56;101710.56;;;22.45;100.00
12664;BME280;6396;58.490;15.528;2023-08-17T12:39:25;101134.59;;;19.18;100.00
12664;BME280;6396;58.490;15.528;2023-08-17T12:41:52;101609.66;;;21.91;100.00
12664;BME280;6396;58.490;15.528;2023-08-17T12:44:19;101366.13;;;20.63;100.00
12664;BME280;6396;58.490;15.528;2023-08-17T12:46:46;101492.00;;;21.17;100.00
12664;BME280;6396;58.490;15.528;2023-08-17T12:49:12;101602.84;;;21.69;100.00